createdAt,value
2018-11-26T00:02:04.265Z,6.10
2018-11-26T00:07:06.951Z,5.97
2018-11-26T00:12:09.386Z,5.17
2018-11-26T00:17:11.853Z,4.70
2018-11-26T00:22:14.359Z,5.43
2018-11-26T00:27:16.773Z,4.53
2018-11-26T00:32:19.233Z,6.17
2018-11-26T00:37:21.681Z,4.47
2018-11-26T00:42:24.180Z,7.17
2018-11-26T00:47:26.597Z,2.50
2018-11-26T00:52:29.105Z,3.87
2018-11-26T00:57:31.570Z,3.47
2018-11-26T01:02:34.026Z,6.67
2018-11-26T01:07:36.520Z,7.40
2018-11-26T01:12:39.055Z,6.73
2018-11-26T01:17:41.486Z,5.93
2018-11-26T01:22:43.960Z,7.13
2018-11-26T01:27:46.437Z,3.53
2018-11-26T01:32:48.867Z,5.07
2018-11-26T01:37:51.364Z,4.40
2018-11-26T01:42:53.824Z,5.50
2018-11-26T01:47:56.325Z,8.00
2018-11-26T01:52:58.780Z,8.67
2018-11-26T01:58:01.878Z,6.47
2018-11-26T02:03:04.369Z,5.17
2018-11-26T02:08:06.835Z,7.23
2018-11-26T02:13:10.354Z,6.60
2018-11-26T02:18:12.843Z,8.13
2018-11-26T02:23:15.381Z,4.60
2018-11-26T02:28:17.837Z,7.00
2018-11-26T02:33:20.331Z,4.20
2018-11-26T02:38:22.766Z,5.17
2018-11-26T02:43:25.261Z,9.93
2018-11-26T02:48:27.686Z,7.83
2018-11-26T02:53:30.192Z,10.90
2018-11-26T02:58:32.661Z,3.53
2018-11-26T03:03:35.082Z,9.70
2018-11-26T03:08:37.552Z,8.50
2018-11-26T03:13:39.989Z,9.07
2018-11-26T03:18:42.480Z,11.73
2018-11-26T03:23:44.952Z,7.77
2018-11-26T03:28:47.412Z,7.13
2018-11-26T03:33:49.906Z,9.23
2018-11-26T03:38:53.813Z,8.50
2018-11-26T03:43:56.326Z,8.73
2018-11-26T03:48:58.804Z,4.73
2018-11-26T03:54:01.245Z,10.13
2018-11-26T03:59:03.708Z,7.07
2018-11-26T04:04:06.188Z,10.30
2018-11-26T04:09:08.717Z,7.43
2018-11-26T04:14:11.141Z,7.07
2018-11-26T04:19:14.643Z,7.57
2018-11-26T04:24:17.074Z,4.03
2018-11-26T04:29:19.530Z,5.10
2018-11-26T04:34:21.969Z,8.27
2018-11-26T04:39:24.429Z,6.63
2018-11-26T04:44:26.893Z,7.50
2018-11-26T04:49:29.343Z,9.47
2018-11-26T04:54:31.887Z,5.40
2018-11-26T04:59:35.448Z,7.40
2018-11-26T05:04:37.920Z,8.97
2018-11-26T05:09:40.426Z,10.37
2018-11-26T05:14:43.238Z,7.57
2018-11-26T05:19:45.695Z,10.23
2018-11-26T05:24:48.158Z,10.80
2018-11-26T05:29:50.681Z,9.23
2018-11-26T05:34:53.300Z,8.70
2018-11-26T05:39:55.791Z,10.10
2018-11-26T05:44:58.270Z,9.37
2018-11-26T05:50:01.019Z,11.73
2018-11-26T05:55:03.653Z,12.60
2018-11-26T06:00:10.978Z,7.80
2018-11-26T06:05:13.428Z,12.17
2018-11-26T06:10:15.856Z,11.33
2018-11-26T06:15:18.326Z,11.87
2018-11-26T06:20:20.809Z,7.63
2018-11-26T06:25:23.347Z,11.77
2018-11-26T06:30:25.932Z,10.87
2018-11-26T06:35:28.409Z,14.97
2018-11-26T06:40:30.940Z,12.40
2018-11-26T06:45:33.822Z,13.57
2018-11-26T06:50:36.986Z,12.43
2018-11-26T06:55:39.657Z,12.37
2018-11-26T07:00:42.096Z,14.67
2018-11-26T07:05:51.748Z,14.80
2018-11-26T07:10:54.297Z,13.00
2018-11-26T07:15:56.796Z,14.17
2018-11-26T07:20:59.269Z,13.77
2018-11-26T07:26:02.647Z,12.10
2018-11-26T07:31:05.507Z,7.57
2018-11-26T07:36:11.394Z,12.03
2018-11-26T07:41:10.499Z,13.00
2018-11-26T07:46:12.938Z,11.60
2018-11-26T07:51:16.933Z,13.47
2018-11-26T07:56:19.601Z,12.53
2018-11-26T08:01:22.141Z,4.33
2018-11-26T08:06:26.414Z,8.10
2018-11-26T08:11:28.847Z,11.10
2018-11-26T08:16:31.297Z,13.10
2018-11-26T08:21:33.796Z,9.33
2018-11-26T08:26:36.305Z,10.50
2018-11-26T14:32:19.222Z,6.40
2018-11-26T14:37:21.703Z,11.50
2018-11-26T14:42:24.160Z,12.07
2018-11-26T14:47:26.637Z,14.00
2018-11-26T14:52:29.177Z,15.27
2018-11-26T14:57:31.620Z,13.23
2018-11-26T15:02:34.103Z,13.83
2018-11-26T15:07:36.611Z,16.17
2018-11-26T15:12:39.139Z,15.70
2018-11-26T15:17:42.360Z,15.60
2018-11-26T15:22:44.883Z,15.23
2018-11-26T15:27:47.359Z,15.53
2018-11-26T15:32:49.855Z,12.43
2018-11-26T15:37:52.372Z,10.63
2018-11-26T15:42:56.146Z,14.53
2018-11-26T15:47:58.720Z,14.50
2018-11-26T15:53:01.223Z,14.00
2018-11-26T15:58:03.862Z,14.13
2018-11-26T16:03:06.758Z,11.97
2018-11-26T16:08:10.954Z,14.77
2018-11-26T16:13:14.882Z,15.93
2018-11-26T16:18:20.673Z,10.67
2018-11-26T16:23:23.177Z,18.97
2018-11-26T16:28:26.697Z,13.77
2018-11-26T16:33:30.179Z,16.03
2018-11-26T16:38:34.294Z,13.50
2018-11-26T16:43:36.825Z,18.03
2018-11-26T16:48:39.308Z,13.97
2018-11-26T16:53:42.004Z,12.70
2018-11-26T16:58:44.515Z,12.57
2018-11-26T17:03:46.938Z,12.77
2018-11-26T17:08:49.528Z,12.67
2018-11-26T17:13:52.027Z,12.50
2018-11-26T17:18:54.535Z,11.60
2018-11-26T17:23:58.828Z,11.27
2018-11-26T17:29:01.294Z,12.00
2018-11-26T17:34:04.210Z,13.73
2018-11-26T17:39:08.113Z,15.00
2018-11-26T17:44:10.815Z,10.17
2018-11-26T17:49:13.270Z,13.13
2018-11-26T17:54:15.795Z,16.47
2018-11-26T17:59:18.268Z,13.50
2018-11-26T18:04:20.706Z,15.30
2018-11-26T18:09:23.203Z,14.90
2018-11-26T18:14:25.659Z,13.73
2018-11-26T18:19:28.138Z,14.83
2018-11-26T18:24:30.602Z,14.17
2018-11-26T18:29:33.087Z,13.93
2018-11-26T18:34:37.101Z,14.17
2018-11-26T18:39:39.595Z,14.03
2018-11-26T18:44:42.131Z,14.33
2018-11-26T18:49:44.600Z,15.50
2018-11-26T18:54:47.254Z,13.73
2018-11-26T18:59:49.727Z,16.33
2018-11-26T19:04:52.272Z,17.17
2018-11-26T19:09:54.787Z,15.40
2018-11-26T19:14:57.325Z,14.20
2018-11-26T19:20:01.187Z,16.40
2018-11-26T19:25:04.155Z,16.13
2018-11-26T19:30:10.086Z,15.63
2018-11-26T19:35:13.952Z,16.03
2018-11-26T19:40:17.134Z,15.47
2018-11-26T19:45:20.375Z,14.73
2018-11-26T19:50:22.911Z,15.00
2018-11-26T19:55:26.105Z,15.23
2018-11-26T20:00:29.879Z,15.70
2018-11-26T20:05:46.083Z,15.17
2018-11-26T20:10:48.580Z,15.10
2018-11-26T20:15:51.395Z,17.00
2018-11-26T20:20:53.879Z,15.87
2018-11-26T20:25:56.361Z,14.53
2018-11-26T20:30:59.416Z,16.27
2018-11-26T20:36:01.919Z,17.13
2018-11-26T20:41:05.692Z,15.77
2018-11-26T20:46:08.338Z,15.80
2018-11-26T20:51:10.990Z,15.13
2018-11-26T20:56:16.822Z,15.50
2018-11-26T21:01:19.254Z,10.73
2018-11-26T21:06:21.800Z,15.70
2018-11-26T21:11:24.326Z,16.90
2018-11-26T21:16:26.805Z,18.07
2018-11-26T21:21:29.455Z,16.67
2018-11-26T21:26:33.786Z,15.10
2018-11-26T21:31:36.395Z,13.87
2018-11-26T21:36:38.972Z,14.20
2018-11-26T21:41:41.547Z,13.70
2018-11-26T21:46:44.099Z,14.83
2018-11-26T21:51:46.609Z,14.23
2018-11-26T21:56:49.703Z,15.50
2018-11-26T22:01:52.383Z,13.93
2018-11-26T22:06:54.944Z,15.60
2018-11-26T22:11:57.455Z,14.63
2018-11-26T22:16:59.984Z,14.10
2018-11-26T22:22:02.479Z,13.47
2018-11-26T22:27:05.027Z,14.07
2018-11-26T22:32:07.538Z,13.83
2018-11-26T22:37:10.019Z,13.13
2018-11-26T22:42:12.463Z,12.67
2018-11-26T22:47:15.033Z,12.67
2018-11-26T22:52:17.476Z,12.03
2018-11-26T22:57:19.979Z,11.37
2018-11-26T23:02:22.391Z,12.90
2018-11-26T23:07:24.900Z,12.43
2018-11-26T23:12:27.359Z,12.27
2018-11-26T23:17:29.877Z,11.40
2018-11-26T23:22:32.334Z,10.23
2018-11-26T23:27:34.801Z,12.43
2018-11-26T23:32:37.313Z,11.60
2018-11-26T23:37:39.759Z,12.33
2018-11-26T23:42:42.240Z,11.27
2018-11-26T23:47:44.736Z,12.33
2018-11-26T23:52:47.278Z,12.53
2018-11-26T23:57:49.850Z,11.77
